Lisbon Portela Airport

LPPT | LIS

Lisbon , Lisbon , Portugal

Saturday, September 21st, 2019 | 12:37

Weather

LPPT 211130Z 19019KT 9999 SCT010 BKN018 23/19 Q1011

Charts

No Charts Available

Gates

94 Available

Runways

2 Available

Events

No events for this airport


New event